Time;durP1;ratioP1;P1;durP2;ratioP2;P2;SDS_P1;SDS_P2;PMS_P1;PMS_P2;Temp;Humidity;BMP_temperature;BMP_pressure;BME280_temperature;BME280_humidity;BME280_pressure;Samples;Min_cycle;Max_cycle;Signal;HPM_P1;HPM_P2
2022/12/31 00:00:09;;;;;;;11.95;10.15;;;;;;;;;;5068662;28;20118;-81
2022/12/31 00:02:35;;;;;;;11.48;10.18;;;;;;;;;;4366759;28;10000194;-82
2022/12/31 00:05:01;;;;;;;11.95;9.27;;;;;;;;;;5075957;28;20058;-82
2022/12/31 00:07:27;;;;;;;9.75;8.70;;;;;;;;;;5055858;28;20017;-82
2022/12/31 00:09:53;;;;;;;12.25;10.00;;;;;;;;;;5066298;28;20048;-82
2022/12/31 00:12:19;;;;;;;11.90;8.90;;;;;;;;;;5074458;28;20027;-82
2022/12/31 00:14:45;;;;;;;10.52;8.90;;;;;;;;;;5075922;28;20109;-82
2022/12/31 00:17:11;;;;;;;9.50;8.00;;;;;;;;;;5061789;28;20387;-82
2022/12/31 00:19:37;;;;;;;8.82;7.80;;;;;;;;;;5068413;28;20063;-82
2022/12/31 00:22:03;;;;;;;8.13;7.32;;;;;;;;;;5064570;28;20389;-81
2022/12/31 00:24:29;;;;;;;7.38;6.68;;;;;;;;;;5060234;28;20029;-81
2022/12/31 00:26:56;;;;;;;6.75;6.05;;;;;;;;;;5061555;28;20480;-80
2022/12/31 00:29:22;;;;;;;7.40;6.18;;;;;;;;;;5065908;28;20031;-81
2022/12/31 00:31:48;;;;;;;6.70;6.00;;;;;;;;;;5075471;28;20021;-81
2022/12/31 00:34:13;;;;;;;6.45;5.85;;;;;;;;;;5071638;28;20016;-81
2022/12/31 00:36:41;;;;;;;7.95;5.72;;;;;;;;;;5067124;28;20029;-80
2022/12/31 00:39:07;;;;;;;6.85;5.38;;;;;;;;;;5062452;28;20032;-80
2022/12/31 00:41:34;;;;;;;5.30;4.80;;;;;;;;;;5065325;28;20032;-79
2022/12/31 00:44:00;;;;;;;5.15;4.28;;;;;;;;;;5071487;28;20031;-81
2022/12/31 00:46:26;;;;;;;6.43;4.78;;;;;;;;;;5061778;28;20025;-81
2022/12/31 00:48:52;;;;;;;4.65;4.25;;;;;;;;;;5066707;28;20025;-81
2022/12/31 00:51:19;;;;;;;6.10;4.63;;;;;;;;;;5063397;28;20025;-81
2022/12/31 00:53:46;;;;;;;5.53;4.00;;;;;;;;;;5068604;28;20032;-80
2022/12/31 00:56:17;;;;;;;4.22;3.83;;;;;;;;;;5064200;28;20164;-81
2022/12/31 00:58:43;;;;;;;4.18;3.78;;;;;;;;;;5059335;28;20120;-81
2022/12/31 01:01:14;;;;;;;4.45;4.00;;;;;;;;;;5057344;28;20111;-81
2022/12/31 01:03:40;;;;;;;5.50;3.95;;;;;;;;;;5059816;28;20028;-80
2022/12/31 01:06:06;;;;;;;4.30;3.90;;;;;;;;;;5061108;28;20413;-80
2022/12/31 01:08:33;;;;;;;4.40;3.65;;;;;;;;;;5061508;28;20526;-81
2022/12/31 01:11:18;;;;;;;4.03;3.63;;;;;;;;;;5066010;28;20035;-81
2022/12/31 01:13:56;;;;;;;4.10;3.70;;;;;;;;;;5061621;28;20020;-81
2022/12/31 01:16:24;;;;;;;4.53;4.13;;;;;;;;;;5049057;28;20690;-82
2022/12/31 01:18:50;;;;;;;7.25;4.57;;;;;;;;;;5066439;28;20473;-81
2022/12/31 01:21:17;;;;;;;5.75;4.57;;;;;;;;;;5067181;28;20028;-81
2022/12/31 01:23:43;;;;;;;4.55;4.15;;;;;;;;;;5057845;28;20100;-81
2022/12/31 01:26:10;;;;;;;5.82;5.05;;;;;;;;;;5060381;28;20447;-81
2022/12/31 01:28:36;;;;;;;5.20;4.70;;;;;;;;;;5060445;28;20497;-80
2022/12/31 01:31:12;;;;;;;5.68;4.93;;;;;;;;;;5071867;28;20085;-80
2022/12/31 01:33:39;;;;;;;4.60;4.20;;;;;;;;;;5061328;28;20020;-80
2022/12/31 01:36:06;;;;;;;4.97;4.40;;;;;;;;;;5050724;28;20029;-79
2022/12/31 01:38:33;;;;;;;4.85;4.38;;;;;;;;;;5069522;28;20027;-78
2022/12/31 01:40:59;;;;;;;4.90;4.40;;;;;;;;;;5061742;28;20031;-78
2022/12/31 01:43:42;;;;;;;4.70;4.13;;;;;;;;;;5069379;28;20036;-77
2022/12/31 01:46:09;;;;;;;4.28;3.88;;;;;;;;;;5053478;28;20060;-79
2022/12/31 01:48:36;;;;;;;5.05;4.43;;;;;;;;;;5070573;28;20640;-78
2022/12/31 01:51:02;;;;;;;4.85;4.00;;;;;;;;;;5069177;28;20044;-79
2022/12/31 01:53:28;;;;;;;4.43;4.03;;;;;;;;;;5067101;28;20027;-79
2022/12/31 01:55:57;;;;;;;4.15;3.70;;;;;;;;;;5061039;28;20054;-79
2022/12/31 01:58:27;;;;;;;4.50;4.10;;;;;;;;;;5067134;28;20028;-78
2022/12/31 02:00:53;;;;;;;6.18;3.78;;;;;;;;;;5060005;28;20055;-79
2022/12/31 02:03:20;;;;;;;4.20;3.80;;;;;;;;;;5062330;28;20071;-79
2022/12/31 02:05:49;;;;;;;3.90;3.50;;;;;;;;;;5060381;28;20068;-79
2022/12/31 02:08:15;;;;;;;4.40;4.00;;;;;;;;;;5060811;28;20016;-80
2022/12/31 02:10:41;;;;;;;6.53;3.53;;;;;;;;;;5065977;28;20032;-80
2022/12/31 02:13:07;;;;;;;3.95;3.58;;;;;;;;;;5061698;28;20589;-80
2022/12/31 02:15:52;;;;;;;2.95;2.65;;;;;;;;;;5067756;28;20030;-80
2022/12/31 02:18:36;;;;;;;3.75;3.00;;;;;;;;;;5057694;28;20098;-79
2022/12/31 02:21:20;;;;;;;3.05;2.65;;;;;;;;;;5063670;28;20041;-80
2022/12/31 02:23:52;;;;;;;2.75;2.50;;;;;;;;;;5051469;28;20536;-80
2022/12/31 02:26:30;;;;;;;4.32;2.67;;;;;;;;;;5055068;28;20048;-80
2022/12/31 02:28:56;;;;;;;4.13;2.47;;;;;;;;;;5063360;28;20039;-80
2022/12/31 02:31:25;;;;;;;3.10;2.33;;;;;;;;;;5071495;28;20036;-80
2022/12/31 02:33:59;;;;;;;2.63;2.40;;;;;;;;;;5077082;28;20050;-80
2022/12/31 02:36:27;;;;;;;4.93;2.63;;;;;;;;;;5075918;28;20421;-81
2022/12/31 02:38:54;;;;;;;3.90;2.55;;;;;;;;;;5060639;28;20388;-82
2022/12/31 02:44:24;;;;;;;2.60;2.25;;;;;;;;;;5067925;28;20098;-80
2022/12/31 02:46:59;;;;;;;2.47;2.28;;;;;;;;;;5062049;28;20040;-81
2022/12/31 02:49:33;;;;;;;2.47;2.28;;;;;;;;;;5057120;28;20052;-82
2022/12/31 02:52:11;;;;;;;3.33;2.28;;;;;;;;;;5070257;28;20036;-80
2022/12/31 02:54:43;;;;;;;2.80;2.35;;;;;;;;;;5063205;28;20059;-80
2022/12/31 02:57:20;;;;;;;3.80;2.72;;;;;;;;;;5060093;28;20028;-81
2022/12/31 03:02:35;;;;;;;2.22;2.03;;;;;;;;;;5054560;28;20105;-80
2022/12/31 03:05:02;;;;;;;3.60;2.20;;;;;;;;;;5063110;28;20028;-81
2022/12/31 03:07:30;;;;;;;2.28;1.90;;;;;;;;;;5051686;28;20868;-80
2022/12/31 03:09:57;;;;;;;2.40;2.20;;;;;;;;;;5072386;28;20816;-79
2022/12/31 03:12:45;;;;;;;2.60;2.10;;;;;;;;;;5046773;28;20048;-79
2022/12/31 03:15:21;;;;;;;3.40;1.98;;;;;;;;;;5075439;28;20023;-79
2022/12/31 03:17:47;;;;;;;2.03;1.58;;;;;;;;;;5075696;28;20073;-79
2022/12/31 03:22:57;;;;;;;3.05;1.65;;;;;;;;;;5065127;28;20548;-79
2022/12/31 03:25:37;;;;;;;2.83;1.55;;;;;;;;;;5065202;28;20032;-80
2022/12/31 03:28:14;;;;;;;1.95;1.52;;;;;;;;;;5071728;28;20107;-80
2022/12/31 03:30:41;;;;;;;2.78;1.40;;;;;;;;;;5051977;28;20024;-81
2022/12/31 03:33:08;;;;;;;1.60;1.50;;;;;;;;;;5078281;28;20024;-82
2022/12/31 03:35:35;;;;;;;2.03;1.17;;;;;;;;;;5070620;28;20013;-83
2022/12/31 03:38:02;;;;;;;2.03;1.10;;;;;;;;;;5064688;28;20054;-83
2022/12/31 03:40:28;;;;;;;2.05;1.10;;;;;;;;;;5069939;28;20089;-83
2022/12/31 03:42:55;;;;;;;1.27;0.88;;;;;;;;;;5062381;28;20075;-83
2022/12/31 03:45:21;;;;;;;1.60;0.80;;;;;;;;;;5063004;28;20472;-82
2022/12/31 03:47:47;;;;;;;1.50;0.90;;;;;;;;;;5077463;28;20048;-81
2022/12/31 03:50:14;;;;;;;0.80;0.70;;;;;;;;;;5078372;28;20033;-81
2022/12/31 03:52:40;;;;;;;0.80;0.80;;;;;;;;;;5057374;28;20029;-81
2022/12/31 03:55:07;;;;;;;1.10;0.60;;;;;;;;;;5062702;28;20035;-82
2022/12/31 03:57:33;;;;;;;0.77;0.70;;;;;;;;;;5062490;28;20622;-81
2022/12/31 03:59:59;;;;;;;1.73;0.60;;;;;;;;;;5069728;28;20539;-80
2022/12/31 04:02:25;;;;;;;1.27;0.60;;;;;;;;;;5074374;28;20035;-80
2022/12/31 04:04:51;;;;;;;0.50;0.50;;;;;;;;;;5065102;28;20020;-80
2022/12/31 04:07:17;;;;;;;2.08;0.60;;;;;;;;;;5062011;28;20025;-80
2022/12/31 04:09:43;;;;;;;2.10;0.40;;;;;;;;;;5071735;28;20124;-80
2022/12/31 04:12:09;;;;;;;0.40;0.40;;;;;;;;;;5067980;28;20115;-81
2022/12/31 04:14:35;;;;;;;2.13;0.60;;;;;;;;;;5067826;28;20066;-80
2022/12/31 04:17:01;;;;;;;0.35;0.35;;;;;;;;;;5065772;28;20086;-79
2022/12/31 04:19:27;;;;;;;1.83;0.40;;;;;;;;;;5058186;28;20036;-80
2022/12/31 04:21:53;;;;;;;2.67;0.57;;;;;;;;;;5067840;28;20020;-80
2022/12/31 04:24:19;;;;;;;0.40;0.40;;;;;;;;;;5066163;28;20415;-80
2022/12/31 04:26:45;;;;;;;1.55;0.32;;;;;;;;;;5060646;28;20310;-80
2022/12/31 04:29:11;;;;;;;1.35;0.25;;;;;;;;;;5064016;28;20488;-80
2022/12/31 04:31:37;;;;;;;0.35;0.35;;;;;;;;;;5059829;28;20033;-80
2022/12/31 04:34:03;;;;;;;3.15;2.40;;;;;;;;;;5066778;28;20028;-80
2022/12/31 04:36:29;;;;;;;3.45;0.80;;;;;;;;;;5059053;28;20035;-80
2022/12/31 04:38:55;;;;;;;1.15;0.60;;;;;;;;;;5070394;28;20488;-80
2022/12/31 04:41:22;;;;;;;1.58;0.60;;;;;;;;;;5084296;28;20032;-81
2022/12/31 04:43:56;;;;;;;1.17;0.70;;;;;;;;;;5078898;28;20036;-80
2022/12/31 04:46:21;;;;;;;;;;;;;;;;;;5056768;28;20097;-80
2022/12/31 04:48:47;;;;;;;1.05;0.55;;;;;;;;;;5061361;28;19916;-80
2022/12/31 04:51:14;;;;;;;0.55;0.40;;;;;;;;;;5062986;28;20043;-80
2022/12/31 04:53:40;;;;;;;1.50;0.63;;;;;;;;;;5066499;28;20024;-80
2022/12/31 04:56:06;;;;;;;0.70;0.50;;;;;;;;;;5063062;28;20017;-80
2022/12/31 04:58:33;;;;;;;1.25;0.40;;;;;;;;;;5050715;28;20032;-82
2022/12/31 05:00:59;;;;;;;1.85;0.60;;;;;;;;;;5068500;28;20037;-80
2022/12/31 05:03:25;;;;;;;1.63;0.55;;;;;;;;;;5061222;28;20107;-80
2022/12/31 05:05:52;;;;;;;2.75;0.40;;;;;;;;;;5066480;28;20033;-80
2022/12/31 05:08:18;;;;;;;1.30;0.50;;;;;;;;;;5062846;28;20037;-81
2022/12/31 05:10:46;;;;;;;0.60;0.50;;;;;;;;;;5069562;28;20031;-80
2022/12/31 05:13:12;;;;;;;0.73;0.63;;;;;;;;;;5049784;28;20040;-79
2022/12/31 05:15:38;;;;;;;0.75;0.60;;;;;;;;;;5060033;28;20095;-80
2022/12/31 05:18:04;;;;;;;1.05;0.70;;;;;;;;;;5060678;28;20024;-80
2022/12/31 05:20:30;;;;;;;1.05;0.55;;;;;;;;;;5079311;28;20496;-80
2022/12/31 05:22:56;;;;;;;1.55;0.70;;;;;;;;;;5055775;28;20108;-80
2022/12/31 05:25:22;;;;;;;2.88;0.70;;;;;;;;;;5063412;28;20495;-79
2022/12/31 05:27:48;;;;;;;1.70;0.75;;;;;;;;;;5066904;28;20098;-80
2022/12/31 05:30:14;;;;;;;1.73;0.90;;;;;;;;;;5082046;28;20062;-80
2022/12/31 05:32:40;;;;;;;0.85;0.60;;;;;;;;;;5070247;28;20021;-80
2022/12/31 05:35:07;;;;;;;2.40;0.85;;;;;;;;;;5063610;28;20025;-80
2022/12/31 05:37:33;;;;;;;0.73;0.73;;;;;;;;;;5072344;28;20051;-79
2022/12/31 05:39:59;;;;;;;0.88;0.82;;;;;;;;;;5063135;28;20023;-78
2022/12/31 05:42:25;;;;;;;0.77;0.77;;;;;;;;;;5057483;28;20086;-79
2022/12/31 05:44:51;;;;;;;1.95;1.08;;;;;;;;;;5066804;28;20617;-80
2022/12/31 05:47:17;;;;;;;2.47;0.75;;;;;;;;;;5064765;28;20132;-79
2022/12/31 05:49:43;;;;;;;2.47;0.90;;;;;;;;;;5076262;28;20028;-79
2022/12/31 05:52:09;;;;;;;2.05;0.88;;;;;;;;;;5056408;28;20100;-80
2022/12/31 05:54:35;;;;;;;0.95;0.73;;;;;;;;;;5063308;28;20221;-79
2022/12/31 05:57:01;;;;;;;0.82;0.82;;;;;;;;;;5063884;28;20033;-79
2022/12/31 05:59:27;;;;;;;2.88;1.05;;;;;;;;;;5054789;28;20104;-78
2022/12/31 06:01:53;;;;;;;3.00;1.25;;;;;;;;;;5061924;28;20119;-79
2022/12/31 06:04:19;;;;;;;1.40;0.80;;;;;;;;;;5058726;28;20043;-79
2022/12/31 06:06:45;;;;;;;3.03;0.85;;;;;;;;;;5071369;28;20028;-78
2022/12/31 06:09:11;;;;;;;1.95;1.05;;;;;;;;;;5065255;28;20119;-78
2022/12/31 06:11:37;;;;;;;3.95;1.38;;;;;;;;;;5064527;28;20240;-79
2022/12/31 06:14:03;;;;;;;2.75;0.90;;;;;;;;;;5072968;28;20067;-79
2022/12/31 06:16:29;;;;;;;1.45;1.00;;;;;;;;;;5070785;28;20021;-79
2022/12/31 06:18:55;;;;;;;1.73;0.90;;;;;;;;;;5068862;28;20024;-79
2022/12/31 06:21:21;;;;;;;1.23;0.70;;;;;;;;;;5074198;28;20036;-79
2022/12/31 06:23:48;;;;;;;0.80;0.80;;;;;;;;;;5063236;28;20025;-79
2022/12/31 06:26:14;;;;;;;2.35;0.80;;;;;;;;;;5054786;28;20475;-79
2022/12/31 06:28:40;;;;;;;2.83;0.77;;;;;;;;;;5069359;28;20031;-79
2022/12/31 06:31:08;;;;;;;1.80;0.77;;;;;;;;;;5060943;28;20028;-79
2022/12/31 06:33:34;;;;;;;2.13;1.13;;;;;;;;;;5074705;28;20105;-79
2022/12/31 06:36:02;;;;;;;1.50;0.90;;;;;;;;;;5050740;28;20448;-79
2022/12/31 06:38:29;;;;;;;1.00;0.70;;;;;;;;;;5062311;28;20652;-79
2022/12/31 06:40:55;;;;;;;1.23;0.90;;;;;;;;;;5064272;28;20487;-79
2022/12/31 06:43:21;;;;;;;1.17;0.85;;;;;;;;;;5061228;28;20024;-79
2022/12/31 06:45:47;;;;;;;2.17;0.85;;;;;;;;;;5068750;28;20036;-79
2022/12/31 06:48:13;;;;;;;1.75;0.90;;;;;;;;;;5069321;28;20040;-78
2022/12/31 06:50:39;;;;;;;3.53;0.88;;;;;;;;;;5065144;28;20029;-78
2022/12/31 06:53:06;;;;;;;4.03;0.88;;;;;;;;;;5069120;28;20388;-79
2022/12/31 06:55:32;;;;;;;2.38;0.80;;;;;;;;;;5068454;28;20020;-78
2022/12/31 06:58:02;;;;;;;0.90;0.77;;;;;;;;;;4497059;28;10002632;-80
2022/12/31 07:00:28;;;;;;;2.33;0.90;;;;;;;;;;5070298;28;20032;-77
2022/12/31 07:03:05;;;;;;;7.15;1.10;;;;;;;;;;5061454;28;20123;-79
2022/12/31 07:05:31;;;;;;;2.92;0.88;;;;;;;;;;5080343;28;20047;-78
2022/12/31 07:08:02;;;;;;;2.25;1.58;;;;;;;;;;5065357;28;20033;-78
2022/12/31 07:10:37;;;;;;;3.33;1.92;;;;;;;;;;5098538;27;20493;-79
2022/12/31 07:13:03;;;;;;;1.45;1.00;;;;;;;;;;5060942;28;20033;-79
2022/12/31 07:15:44;;;;;;;2.45;1.15;;;;;;;;;;5074278;28;20047;-78
2022/12/31 07:18:19;;;;;;;1.83;0.98;;;;;;;;;;5065766;28;20031;-78
2022/12/31 07:20:45;;;;;;;1.80;1.10;;;;;;;;;;5072540;28;20036;-78
2022/12/31 07:23:11;;;;;;;1.00;0.80;;;;;;;;;;5065473;28;20028;-78
2022/12/31 07:25:38;;;;;;;1.77;0.93;;;;;;;;;;5068042;28;20527;-78
2022/12/31 07:28:16;;;;;;;2.88;1.00;;;;;;;;;;5071008;28;20028;-79
2022/12/31 07:30:46;;;;;;;2.90;1.20;;;;;;;;;;5059959;28;20669;-78
2022/12/31 07:33:11;;;;;;;2.28;0.73;;;;;;;;;;5052616;28;20116;-78
2022/12/31 07:35:47;;;;;;;1.13;0.80;;;;;;;;;;5047617;28;20659;-77
2022/12/31 07:38:22;;;;;;;1.58;0.70;;;;;;;;;;5064263;28;20414;-78
2022/12/31 07:41:07;;;;;;;2.58;0.70;;;;;;;;;;5063681;28;20781;-78
2022/12/31 07:43:42;;;;;;;1.75;0.80;;;;;;;;;;5067581;28;20781;-77
2022/12/31 07:46:21;;;;;;;1.65;0.80;;;;;;;;;;5059344;28;20412;-78
2022/12/31 07:48:47;;;;;;;1.60;0.85;;;;;;;;;;5082736;28;20024;-77
2022/12/31 07:51:14;;;;;;;3.70;0.80;;;;;;;;;;5071484;28;20051;-78
2022/12/31 07:53:40;;;;;;;3.42;0.80;;;;;;;;;;5065215;28;20028;-78
2022/12/31 07:56:07;;;;;;;3.00;0.90;;;;;;;;;;5064043;28;20036;-77
2022/12/31 07:58:39;;;;;;;2.20;0.90;;;;;;;;;;5058497;28;20017;-78
2022/12/31 08:01:08;;;;;;;3.33;0.77;;;;;;;;;;5056017;28;20762;-78
2022/12/31 08:03:34;;;;;;;1.23;0.80;;;;;;;;;;5060690;28;20039;-78
2022/12/31 08:06:07;;;;;;;5.10;0.90;;;;;;;;;;5073976;28;20028;-77
2022/12/31 08:08:50;;;;;;;0.95;0.60;;;;;;;;;;5057926;28;20121;-77
2022/12/31 08:11:30;;;;;;;1.45;0.80;;;;;;;;;;5072643;28;20032;-77
2022/12/31 08:14:00;;;;;;;1.63;0.90;;;;;;;;;;5065876;28;20089;-77
2022/12/31 08:16:26;;;;;;;1.88;0.73;;;;;;;;;;5069785;28;20112;-78
2022/12/31 08:18:52;;;;;;;2.60;0.80;;;;;;;;;;5067438;28;20093;-78
2022/12/31 08:21:22;;;;;;;1.52;0.73;;;;;;;;;;5080657;28;20032;-77
2022/12/31 08:24:17;;;;;;;1.58;0.70;;;;;;;;;;5071571;28;20036;-78
2022/12/31 08:26:55;;;;;;;3.10;0.90;;;;;;;;;;5043952;28;20040;-77
2022/12/31 08:29:30;;;;;;;1.92;0.77;;;;;;;;;;5056854;28;20028;-77
2022/12/31 08:32:06;;;;;;;1.38;0.70;;;;;;;;;;5061950;28;20059;-77
2022/12/31 08:34:32;;;;;;;1.73;0.70;;;;;;;;;;5059626;28;20028;-77
2022/12/31 08:37:04;;;;;;;4.13;0.80;;;;;;;;;;5063631;28;20615;-78
2022/12/31 08:39:36;;;;;;;2.03;1.00;;;;;;;;;;5070175;28;20024;-77
2022/12/31 08:42:04;;;;;;;2.25;0.77;;;;;;;;;;5057967;28;20125;-77
2022/12/31 08:44:39;;;;;;;4.15;0.80;;;;;;;;;;5058311;28;20025;-77
2022/12/31 08:47:07;;;;;;;1.92;0.90;;;;;;;;;;5068904;28;20051;-77
2022/12/31 08:49:34;;;;;;;2.58;1.27;;;;;;;;;;5068019;28;20028;-77
2022/12/31 08:52:01;;;;;;;1.25;0.85;;;;;;;;;;5056343;28;20039;-78
2022/12/31 08:54:27;;;;;;;2.45;1.00;;;;;;;;;;5060068;28;20094;-78
2022/12/31 08:57:14;;;;;;;2.08;0.88;;;;;;;;;;5066555;28;20024;-77
2022/12/31 08:59:55;;;;;;;3.78;1.00;;;;;;;;;;5057477;28;20023;-78
2022/12/31 09:02:34;;;;;;;1.50;0.80;;;;;;;;;;5063006;28;20020;-78
2022/12/31 09:05:03;;;;;;;5.50;1.00;;;;;;;;;;5058775;28;20025;-77
2022/12/31 09:07:32;;;;;;;6.63;1.40;;;;;;;;;;5066543;28;20020;-78
2022/12/31 09:09:58;;;;;;;2.90;0.90;;;;;;;;;;5063346;28;20027;-78
2022/12/31 09:12:31;;;;;;;2.15;0.82;;;;;;;;;;5059274;28;20036;-77
2022/12/31 09:15:05;;;;;;;2.55;0.80;;;;;;;;;;5055845;28;20491;-78
2022/12/31 09:17:43;;;;;;;4.32;1.10;;;;;;;;;;5063465;28;20221;-78
2022/12/31 09:20:14;;;;;;;2.78;1.20;;;;;;;;;;5066032;28;20047;-78
2022/12/31 09:22:40;;;;;;;1.25;0.90;;;;;;;;;;5056900;28;20103;-78
2022/12/31 09:25:07;;;;;;;6.05;1.20;;;;;;;;;;5066567;28;20640;-78
2022/12/31 09:27:39;;;;;;;3.40;1.00;;;;;;;;;;5060416;28;20033;-77
2022/12/31 09:30:08;;;;;;;2.13;1.02;;;;;;;;;;5057934;28;20029;-77
2022/12/31 09:32:34;;;;;;;4.68;1.70;;;;;;;;;;5052570;28;20108;-79
2022/12/31 09:35:00;;;;;;;4.93;2.10;;;;;;;;;;5061619;28;20111;-78
2022/12/31 09:37:28;;;;;;;7.35;3.40;;;;;;;;;;5058591;28;20392;-77
2022/12/31 09:39:56;;;;;;;3.65;2.55;;;;;;;;;;5062789;28;20048;-78
2022/12/31 09:42:40;;;;;;;2.55;1.40;;;;;;;;;;5064486;28;20039;-78
2022/12/31 09:45:22;;;;;;;4.93;1.40;;;;;;;;;;5057500;28;20111;-78
2022/12/31 09:48:08;;;;;;;1.50;1.13;;;;;;;;;;5066252;28;20063;-78
2022/12/31 09:50:51;;;;;;;2.53;1.08;;;;;;;;;;5050823;28;20144;-78
2022/12/31 09:53:23;;;;;;;4.38;1.40;;;;;;;;;;5059740;28;20021;-77
2022/12/31 09:56:07;;;;;;;3.22;1.30;;;;;;;;;;5053677;28;20009;-78
2022/12/31 09:58:52;;;;;;;3.72;1.20;;;;;;;;;;5060739;28;20033;-77
2022/12/31 10:01:23;;;;;;;4.30;1.42;;;;;;;;;;5061144;28;20021;-78
2022/12/31 10:03:52;;;;;;;3.40;1.08;;;;;;;;;;5067481;28;20031;-77
2022/12/31 10:06:18;;;;;;;4.57;1.77;;;;;;;;;;5053388;28;20719;-77
2022/12/31 10:09:02;;;;;;;3.05;1.80;;;;;;;;;;5056909;28;20020;-78
2022/12/31 10:11:37;;;;;;;5.07;1.42;;;;;;;;;;5052690;28;20025;-78
2022/12/31 10:14:21;;;;;;;5.55;1.50;;;;;;;;;;5068246;28;20462;-78
2022/12/31 10:17:06;;;;;;;2.47;1.30;;;;;;;;;;5056462;28;20051;-78
2022/12/31 10:19:46;;;;;;;2.30;1.10;;;;;;;;;;5058858;28;20048;-78
2022/12/31 10:22:31;;;;;;;3.50;1.17;;;;;;;;;;5056259;28;20056;-78
2022/12/31 10:25:10;;;;;;;2.28;1.30;;;;;;;;;;5058723;28;20036;-78
2022/12/31 10:27:39;;;;;;;2.85;1.20;;;;;;;;;;5050493;28;20073;-85
2022/12/31 10:30:12;;;;;;;3.22;1.55;;;;;;;;;;5061648;28;20028;-77
2022/12/31 10:32:54;;;;;;;2.58;1.10;;;;;;;;;;5059828;28;20025;-77
2022/12/31 10:35:42;;;;;;;6.05;1.40;;;;;;;;;;5057350;28;20507;-77
2022/12/31 10:38:27;;;;;;;2.88;1.20;;;;;;;;;;5061328;28;20069;-77
2022/12/31 10:40:53;;;;;;;4.07;1.17;;;;;;;;;;5060787;28;20465;-77
2022/12/31 10:43:37;;;;;;;3.05;1.15;;;;;;;;;;5057402;28;20032;-77
2022/12/31 10:46:26;;;;;;;3.05;1.02;;;;;;;;;;5060000;28;20032;-77
2022/12/31 10:48:52;;;;;;;1.63;1.13;;;;;;;;;;5045746;28;20076;-77
2022/12/31 10:51:37;;;;;;;2.08;0.98;;;;;;;;;;5064805;28;20068;-77
2022/12/31 10:54:26;;;;;;;4.93;1.20;;;;;;;;;;5054300;28;20036;-78
2022/12/31 10:56:54;;;;;;;2.47;1.08;;;;;;;;;;5053119;28;20116;-78
2022/12/31 10:59:39;;;;;;;2.63;1.10;;;;;;;;;;5049857;28;20744;-77
2022/12/31 11:02:24;;;;;;;3.55;1.02;;;;;;;;;;5057946;28;20032;-77
2022/12/31 11:04:58;;;;;;;3.60;1.30;;;;;;;;;;5058956;28;20056;-77
2022/12/31 11:07:43;;;;;;;3.60;1.00;;;;;;;;;;5059432;28;20041;-77
2022/12/31 11:10:21;;;;;;;3.35;1.25;;;;;;;;;;5063404;28;20512;-78
2022/12/31 11:12:47;;;;;;;4.82;1.30;;;;;;;;;;5058695;28;20703;-78
2022/12/31 11:15:22;;;;;;;2.90;1.00;;;;;;;;;;5061899;28;20032;-78
2022/12/31 11:17:48;;;;;;;4.68;1.08;;;;;;;;;;5054422;28;20044;-77
2022/12/31 11:20:14;;;;;;;3.20;0.80;;;;;;;;;;5061739;28;20122;-77
2022/12/31 11:22:50;;;;;;;1.95;1.00;;;;;;;;;;5072269;28;20067;-77
2022/12/31 11:25:29;;;;;;;6.53;0.90;;;;;;;;;;5056699;28;20052;-77
2022/12/31 11:27:54;;;;;;;2.42;0.98;;;;;;;;;;5057581;28;20487;-76
2022/12/31 11:30:25;;;;;;;2.42;1.00;;;;;;;;;;5063344;28;20052;-77
2022/12/31 11:33:07;;;;;;;4.22;1.08;;;;;;;;;;5060975;28;20021;-77
2022/12/31 11:35:42;;;;;;;4.75;0.90;;;;;;;;;;5061046;28;20028;-76
2022/12/31 11:38:15;;;;;;;1.75;0.80;;;;;;;;;;5067793;28;20028;-77
2022/12/31 11:40:46;;;;;;;4.10;1.90;;;;;;;;;;5055049;28;20033;-76
2022/12/31 11:43:15;;;;;;;2.40;0.95;;;;;;;;;;5062386;28;20097;-76
2022/12/31 11:45:47;;;;;;;3.65;0.85;;;;;;;;;;5074584;28;20097;-77
2022/12/31 11:48:21;;;;;;;3.80;0.90;;;;;;;;;;5083264;28;20036;-77
2022/12/31 11:50:52;;;;;;;3.08;0.70;;;;;;;;;;5056621;28;20714;-77
2022/12/31 11:53:24;;;;;;;1.63;0.88;;;;;;;;;;5062506;28;20111;-77
2022/12/31 11:55:56;;;;;;;2.42;0.80;;;;;;;;;;5062020;28;20055;-77
2022/12/31 11:58:28;;;;;;;1.50;0.50;;;;;;;;;;5062212;28;20013;-75
2022/12/31 12:01:14;;;;;;;3.97;1.13;;;;;;;;;;5057648;28;20973;-77
2022/12/31 12:03:43;;;;;;;4.13;1.00;;;;;;;;;;5065139;28;20362;-77
2022/12/31 12:06:13;;;;;;;3.88;1.17;;;;;;;;;;5060158;28;20041;-77
2022/12/31 12:08:40;;;;;;;1.63;0.80;;;;;;;;;;5066132;28;20024;-77
2022/12/31 12:11:07;;;;;;;2.20;0.90;;;;;;;;;;5065313;28;20042;-77
2022/12/31 12:13:33;;;;;;;3.25;0.90;;;;;;;;;;5062058;28;20024;-77
2022/12/31 12:16:01;;;;;;;2.22;1.25;;;;;;;;;;5061388;28;20024;-76
2022/12/31 12:18:34;;;;;;;3.20;1.15;;;;;;;;;;5064034;28;20115;-77
2022/12/31 12:21:30;;;;;;;3.88;1.20;;;;;;;;;;5064405;28;20028;-77
2022/12/31 12:24:04;;;;;;;2.53;1.13;;;;;;;;;;5046883;28;20037;-76
2022/12/31 12:26:34;;;;;;;1.48;1.00;;;;;;;;;;5058347;28;20063;-77
2022/12/31 12:29:08;;;;;;;2.08;1.02;;;;;;;;;;5058035;28;20027;-77
2022/12/31 12:31:34;;;;;;;4.80;1.00;;;;;;;;;;5064327;28;20031;-78
2022/12/31 12:34:01;;;;;;;2.72;1.10;;;;;;;;;;5061780;28;20107;-76
2022/12/31 12:36:26;;;;;;;1.52;0.88;;;;;;;;;;5065940;28;20020;-76
2022/12/31 12:39:03;;;;;;;4.70;1.00;;;;;;;;;;5065563;28;20021;-77
2022/12/31 12:41:29;;;;;;;4.68;1.08;;;;;;;;;;5060198;28;20020;-76
2022/12/31 12:44:03;;;;;;;2.92;1.30;;;;;;;;;;5059009;28;20032;-77
2022/12/31 12:46:35;;;;;;;5.05;1.20;;;;;;;;;;5058277;28;20028;-76
2022/12/31 12:49:02;;;;;;;5.13;1.00;;;;;;;;;;5058426;28;20586;-76
2022/12/31 12:51:37;;;;;;;2.80;1.08;;;;;;;;;;5056531;28;20028;-76
2022/12/31 12:54:02;;;;;;;2.65;1.13;;;;;;;;;;5058141;28;20488;-76
2022/12/31 12:56:34;;;;;;;3.25;1.13;;;;;;;;;;5059518;28;20109;-76
2022/12/31 12:59:09;;;;;;;3.05;1.10;;;;;;;;;;5058678;28;20048;-76
2022/12/31 13:01:35;;;;;;;4.57;1.10;;;;;;;;;;5065152;28;20088;-76
2022/12/31 13:04:20;;;;;;;4.13;1.20;;;;;;;;;;5060263;28;20077;-76
2022/12/31 13:06:46;;;;;;;3.13;1.30;;;;;;;;;;5056675;28;20040;-75
2022/12/31 13:09:20;;;;;;;2.88;0.93;;;;;;;;;;5063786;28;20036;-76
2022/12/31 13:12:05;;;;;;;5.78;1.45;;;;;;;;;;5062396;28;20031;-77
2022/12/31 13:14:46;;;;;;;2.17;1.38;;;;;;;;;;5056484;28;20027;-76
2022/12/31 13:17:20;;;;;;;1.73;0.98;;;;;;;;;;5056103;28;20012;-76
2022/12/31 13:20:07;;;;;;;4.68;1.20;;;;;;;;;;5061493;28;20028;-76
2022/12/31 13:22:33;;;;;;;3.42;1.40;;;;;;;;;;5030537;28;20040;-76
2022/12/31 13:25:06;;;;;;;2.70;1.30;;;;;;;;;;5053294;28;20044;-76
2022/12/31 13:27:37;;;;;;;3.22;1.25;;;;;;;;;;5065075;28;20028;-78
2022/12/31 13:30:11;;;;;;;1.50;1.10;;;;;;;;;;5054911;28;20491;-76
2022/12/31 13:32:39;;;;;;;5.68;1.75;;;;;;;;;;5052421;28;20107;-77
2022/12/31 13:35:18;;;;;;;4.85;1.70;;;;;;;;;;5060800;28;20649;-77
2022/12/31 13:37:46;;;;;;;4.47;1.77;;;;;;;;;;5058808;28;20029;-77
2022/12/31 13:40:25;;;;;;;3.00;1.63;;;;;;;;;;5061375;28;20035;-77
2022/12/31 13:43:00;;;;;;;4.40;2.10;;;;;;;;;;5059103;28;20050;-76
2022/12/31 13:45:35;;;;;;;3.90;1.77;;;;;;;;;;5064037;28;20098;-77
2022/12/31 13:48:06;;;;;;;3.63;2.05;;;;;;;;;;4706092;28;10000432;-77
2022/12/31 13:50:43;;;;;;;5.78;1.67;;;;;;;;;;5061848;28;20036;-77
2022/12/31 13:53:12;;;;;;;2.65;1.75;;;;;;;;;;5056278;28;20089;-77
2022/12/31 13:55:43;;;;;;;5.32;1.90;;;;;;;;;;5060753;28;20024;-77
2022/12/31 13:58:21;;;;;;;7.70;2.13;;;;;;;;;;5051315;28;20020;-77
2022/12/31 14:00:50;;;;;;;2.60;1.60;;;;;;;;;;5052724;28;20710;-77
2022/12/31 14:03:27;;;;;;;3.70;1.80;;;;;;;;;;5051742;28;20468;-78
2022/12/31 14:06:19;;;;;;;5.43;2.17;;;;;;;;;;5056001;28;20035;-77
2022/12/31 14:08:45;;;;;;;5.22;1.55;;;;;;;;;;5048721;28;20036;-77
2022/12/31 14:11:17;;;;;;;2.80;1.48;;;;;;;;;;5052616;28;20031;-77
2022/12/31 14:14:02;;;;;;;4.35;1.70;;;;;;;;;;5056674;28;20512;-75
2022/12/31 14:16:42;;;;;;;5.70;2.13;;;;;;;;;;5057011;28;20014;-76
2022/12/31 14:19:20;;;;;;;5.65;2.53;;;;;;;;;;5049809;28;20029;-78
2022/12/31 14:21:54;;;;;;;5.25;2.55;;;;;;;;;;5059645;28;20421;-77
2022/12/31 14:24:29;;;;;;;5.82;2.63;;;;;;;;;;5051551;28;20599;-77
2022/12/31 14:26:57;;;;;;;4.57;2.60;;;;;;;;;;5057243;28;20044;-77
2022/12/31 14:29:33;;;;;;;6.35;2.35;;;;;;;;;;5051618;28;20036;-77
2022/12/31 14:32:05;;;;;;;6.22;2.10;;;;;;;;;;5054553;28;20121;-77
2022/12/31 14:34:46;;;;;;;4.00;2.20;;;;;;;;;;5051755;28;20071;-78
2022/12/31 14:37:12;;;;;;;4.63;2.72;;;;;;;;;;5053050;28;20029;-80
2022/12/31 14:39:43;;;;;;;5.05;2.22;;;;;;;;;;5054304;28;20028;-77
2022/12/31 14:42:31;;;;;;;3.15;1.80;;;;;;;;;;5060046;28;20029;-76
2022/12/31 14:45:17;;;;;;;6.53;2.40;;;;;;;;;;5057953;28;20046;-76
2022/12/31 14:47:52;;;;;;;6.28;3.33;;;;;;;;;;5049437;28;20045;-76
2022/12/31 14:50:21;;;;;;;4.47;2.47;;;;;;;;;;5058511;28;20044;-77
2022/12/31 14:52:52;;;;;;;2.60;2.08;;;;;;;;;;5064789;28;20031;-75
2022/12/31 14:55:24;;;;;;;3.47;2.15;;;;;;;;;;5059953;28;20552;-77
2022/12/31 14:57:50;;;;;;;4.95;2.22;;;;;;;;;;5055528;28;20055;-77
2022/12/31 15:00:22;;;;;;;9.55;2.60;;;;;;;;;;5056225;28;20035;-76
2022/12/31 15:03:11;;;;;;;4.95;2.42;;;;;;;;;;5057164;28;20033;-76
2022/12/31 15:05:37;;;;;;;4.35;2.63;;;;;;;;;;5049378;28;20668;-77
2022/12/31 15:08:14;;;;;;;3.25;2.20;;;;;;;;;;5053220;28;20028;-77
2022/12/31 15:10:47;;;;;;;6.57;2.65;;;;;;;;;;5058421;28;20374;-77
2022/12/31 15:13:32;;;;;;;4.72;2.70;;;;;;;;;;5058186;28;20052;-77